Time;durP1;ratioP1;P1;durP2;ratioP2;P2;SDS_P1;SDS_P2;PMS_P1;PMS_P2;Temp;Humidity;BMP_temperature;BMP_pressure;BME280_temperature;BME280_humidity;BME280_pressure;Samples;Min_cycle;Max_cycle;Signal;HPM_P1;HPM_P2
2024/01/06 00:00:40;;;;;;;39.30;25.00;;;;;;;;;;2034153;29;20024;-59
2024/01/06 00:01:41;;;;;;;40.85;25.70;;;;;;;;;;2025185;29;20037;-59
2024/01/06 00:02:42;;;;;;;42.78;27.23;;;;;;;;;;2025839;29;20070;-59
2024/01/06 00:03:42;;;;;;;47.22;28.13;;;;;;;;;;2025818;29;20063;-59
2024/01/06 00:04:43;;;;;;;49.83;29.48;;;;;;;;;;2025772;29;20457;-60
2024/01/06 00:05:44;;;;;;;38.45;23.52;;;;;;;;;;2034169;29;20035;-60
2024/01/06 00:06:44;;;;;;;38.40;23.67;;;;;;;;;;2034240;29;20036;-60
2024/01/06 00:07:45;;;;;;;38.20;25.55;;;;;;;;;;2034059;29;20055;-60
2024/01/06 00:08:46;;;;;;;47.22;31.27;;;;;;;;;;2034039;29;20392;-60
2024/01/06 00:09:47;;;;;;;45.20;30.02;;;;;;;;;;2034126;29;20469;-61
2024/01/06 00:10:48;;;;;;;43.63;28.98;;;;;;;;;;2033717;29;20055;-60
2024/01/06 00:11:49;;;;;;;45.38;31.08;;;;;;;;;;2033707;29;20052;-60
2024/01/06 00:12:49;;;;;;;43.67;31.00;;;;;;;;;;2033947;29;20036;-59
2024/01/06 00:13:50;;;;;;;48.00;32.95;;;;;;;;;;2033371;29;20067;-59
2024/01/06 00:14:51;;;;;;;50.38;32.80;;;;;;;;;;2033948;29;20489;-59
2024/01/06 00:15:51;;;;;;;50.70;32.50;;;;;;;;;;2033925;29;20040;-58
2024/01/06 00:16:52;;;;;;;49.42;32.10;;;;;;;;;;2034122;29;20051;-58
2024/01/06 00:17:53;;;;;;;51.58;34.45;;;;;;;;;;2034132;29;20047;-59
2024/01/06 00:18:53;;;;;;;56.55;36.25;;;;;;;;;;2033891;29;20047;-59
2024/01/06 00:19:54;;;;;;;55.45;36.25;;;;;;;;;;2033918;29;20036;-59
2024/01/06 00:20:56;;;;;;;51.67;35.28;;;;;;;;;;2034090;29;20110;-59
2024/01/06 00:21:56;;;;;;;52.05;34.95;;;;;;;;;;2033914;29;20052;-59
2024/01/06 00:22:58;;;;;;;59.70;38.30;;;;;;;;;;2033914;29;20072;-58
2024/01/06 00:23:59;;;;;;;55.67;37.17;;;;;;;;;;2025850;29;20135;-59
2024/01/06 00:25:00;;;;;;;52.55;35.92;;;;;;;;;;2025580;29;20074;-59
2024/01/06 00:26:02;;;;;;;54.30;33.78;;;;;;;;;;2033059;29;20063;-58
2024/01/06 00:27:03;;;;;;;56.33;34.50;;;;;;;;;;2034078;29;20039;-59
2024/01/06 00:28:04;;;;;;;59.25;39.13;;;;;;;;;;2033546;29;20468;-58
2024/01/06 00:29:04;;;;;;;55.80;37.58;;;;;;;;;;2033546;29;20080;-58
2024/01/06 00:30:05;;;;;;;58.67;37.08;;;;;;;;;;2033751;29;20040;-58
2024/01/06 00:31:06;;;;;;;64.15;38.88;;;;;;;;;;2033867;29;20059;-58
2024/01/06 00:32:07;;;;;;;64.00;39.50;;;;;;;;;;2034044;29;20036;-59
2024/01/06 00:33:07;;;;;;;61.17;39.50;;;;;;;;;;2033766;29;20055;-59
2024/01/06 00:34:08;;;;;;;70.25;43.25;;;;;;;;;;2033803;29;20036;-59
2024/01/06 00:35:09;;;;;;;73.78;43.47;;;;;;;;;;2034036;29;20062;-59
2024/01/06 00:36:10;;;;;;;71.80;43.95;;;;;;;;;;2033696;29;20370;-60
2024/01/06 00:37:10;;;;;;;75.05;43.05;;;;;;;;;;2025147;29;20060;-59
2024/01/06 00:38:11;;;;;;;75.47;45.60;;;;;;;;;;2025592;29;20040;-59
2024/01/06 00:39:12;;;;;;;69.25;42.45;;;;;;;;;;2033938;29;20123;-59
2024/01/06 00:40:12;;;;;;;69.18;41.20;;;;;;;;;;2033802;29;20040;-59
2024/01/06 00:41:13;;;;;;;69.03;42.83;;;;;;;;;;2033946;29;20131;-59
2024/01/06 00:42:14;;;;;;;68.78;41.08;;;;;;;;;;2033751;29;20048;-59
2024/01/06 00:43:15;;;;;;;74.45;44.17;;;;;;;;;;2033435;29;20044;-59
2024/01/06 00:44:15;;;;;;;71.15;42.80;;;;;;;;;;2033810;29;20036;-59
2024/01/06 00:45:16;;;;;;;68.05;40.70;;;;;;;;;;2033821;29;20064;-59
2024/01/06 00:46:17;;;;;;;72.60;44.25;;;;;;;;;;2033857;29;20035;-59
2024/01/06 00:47:18;;;;;;;69.50;42.35;;;;;;;;;;2033914;29;20389;-59
2024/01/06 00:48:19;;;;;;;69.68;42.72;;;;;;;;;;2033872;29;20047;-59
2024/01/06 00:49:19;;;;;;;67.28;41.47;;;;;;;;;;2033580;29;20461;-59
2024/01/06 00:50:20;;;;;;;78.80;45.38;;;;;;;;;;2033728;29;20448;-59
2024/01/06 00:51:21;;;;;;;80.03;46.40;;;;;;;;;;2033672;29;20369;-59
2024/01/06 00:52:22;;;;;;;78.07;44.42;;;;;;;;;;2025098;29;20044;-59
2024/01/06 00:53:23;;;;;;;77.50;44.17;;;;;;;;;;2025553;29;20495;-59
2024/01/06 00:54:23;;;;;;;73.47;45.53;;;;;;;;;;2033777;29;20499;-59
2024/01/06 00:55:25;;;;;;;70.07;43.78;;;;;;;;;;2033395;29;20047;-58
2024/01/06 00:56:27;;;;;;;74.40;46.13;;;;;;;;;;2033855;29;20033;-59
2024/01/06 00:57:28;;;;;;;76.50;44.28;;;;;;;;;;2033390;29;20408;-58
2024/01/06 00:58:28;;;;;;;70.20;42.58;;;;;;;;;;2024667;29;20048;-58
2024/01/06 00:59:29;;;;;;;78.45;45.53;;;;;;;;;;2025067;29;20421;-58
2024/01/06 01:00:30;;;;;;;71.53;44.28;;;;;;;;;;2033719;29;20469;-58
2024/01/06 01:01:31;;;;;;;77.78;45.83;;;;;;;;;;2033697;29;20043;-58
2024/01/06 01:02:32;;;;;;;77.28;46.50;;;;;;;;;;2033763;29;20039;-58
2024/01/06 01:03:32;;;;;;;75.05;44.60;;;;;;;;;;2025357;29;20183;-58
2024/01/06 01:04:33;;;;;;;78.53;44.85;;;;;;;;;;2025315;29;20050;-58
2024/01/06 01:05:34;;;;;;;69.20;41.60;;;;;;;;;;2033690;29;20392;-59
2024/01/06 01:06:36;;;;;;;66.18;41.42;;;;;;;;;;2033741;29;20481;-58
2024/01/06 01:07:37;;;;;;;63.35;40.45;;;;;;;;;;2033377;29;20051;-58
2024/01/06 01:08:37;;;;;;;68.55;40.35;;;;;;;;;;2033156;29;20090;-57
2024/01/06 01:09:38;;;;;;;66.22;40.00;;;;;;;;;;2033763;29;20091;-58
2024/01/06 01:10:39;;;;;;;62.97;40.22;;;;;;;;;;2033604;29;20126;-58
2024/01/06 01:11:40;;;;;;;62.45;38.88;;;;;;;;;;2034378;29;20481;-58
2024/01/06 01:12:41;;;;;;;65.30;41.78;;;;;;;;;;2035376;29;20043;-58
2024/01/06 01:13:41;;;;;;;65.78;41.10;;;;;;;;;;2034667;29;20080;-58
2024/01/06 01:14:42;;;;;;;64.32;40.20;;;;;;;;;;2035495;29;20036;-58
2024/01/06 01:15:43;;;;;;;71.10;43.65;;;;;;;;;;2035291;29;20098;-58
2024/01/06 01:16:43;;;;;;;75.32;43.55;;;;;;;;;;2035180;29;20489;-58
2024/01/06 01:17:44;;;;;;;71.45;43.15;;;;;;;;;;2034655;29;20520;-58
2024/01/06 01:18:45;;;;;;;69.65;43.47;;;;;;;;;;2035372;29;20464;-58
2024/01/06 01:19:46;;;;;;;73.65;42.92;;;;;;;;;;2035321;29;20032;-58
2024/01/06 01:20:46;;;;;;;67.50;40.88;;;;;;;;;;2034907;29;20052;-57
2024/01/06 01:21:47;;;;;;;70.05;44.55;;;;;;;;;;2035495;29;20068;-58
2024/01/06 01:22:48;;;;;;;75.60;45.63;;;;;;;;;;2035431;29;20036;-57
2024/01/06 01:23:48;;;;;;;83.60;47.38;;;;;;;;;;2035191;29;20047;-57
2024/01/06 01:24:49;;;;;;;89.80;51.08;;;;;;;;;;2027216;29;20506;-57
2024/01/06 01:25:50;;;;;;;99.38;54.17;;;;;;;;;;2026878;29;20489;-57
2024/01/06 01:26:51;;;;;;;85.60;48.42;;;;;;;;;;2035205;29;20465;-57
2024/01/06 01:27:51;;;;;;;74.85;46.38;;;;;;;;;;2035411;29;20047;-57
2024/01/06 01:28:52;;;;;;;72.15;45.63;;;;;;;;;;2035199;29;20048;-58
2024/01/06 01:29:54;;;;;;;72.32;44.92;;;;;;;;;;2035186;29;20039;-58
2024/01/06 01:30:55;;;;;;;74.32;45.25;;;;;;;;;;2035238;29;20038;-59
2024/01/06 01:31:56;;;;;;;74.47;44.20;;;;;;;;;;2035105;29;20064;-58
2024/01/06 01:32:56;;;;;;;80.78;48.58;;;;;;;;;;2035318;29;20115;-58
2024/01/06 01:33:57;;;;;;;80.45;48.30;;;;;;;;;;2035255;29;20117;-58
2024/01/06 01:34:58;;;;;;;84.85;49.38;;;;;;;;;;2035003;29;20040;-58
2024/01/06 01:35:59;;;;;;;81.75;48.63;;;;;;;;;;2035437;29;20090;-58
2024/01/06 01:36:59;;;;;;;77.90;47.95;;;;;;;;;;2035072;29;20484;-58
2024/01/06 01:38:00;;;;;;;79.22;47.72;;;;;;;;;;2035364;29;20024;-58
2024/01/06 01:39:01;;;;;;;89.05;51.55;;;;;;;;;;2035048;29;20055;-58
2024/01/06 01:40:02;;;;;;;71.68;45.15;;;;;;;;;;2035183;29;20389;-58
2024/01/06 01:41:02;;;;;;;86.72;50.78;;;;;;;;;;2034772;29;20053;-58
2024/01/06 01:42:03;;;;;;;85.95;48.58;;;;;;;;;;2035120;29;20036;-58
2024/01/06 01:43:04;;;;;;;80.75;48.90;;;;;;;;;;2034776;29;20044;-58
2024/01/06 01:44:05;;;;;;;88.43;51.25;;;;;;;;;;2035101;29;20051;-58
2024/01/06 01:45:05;;;;;;;76.68;46.33;;;;;;;;;;2035199;29;20036;-57
2024/01/06 01:46:06;;;;;;;66.05;42.50;;;;;;;;;;2035268;29;20088;-58
2024/01/06 01:47:07;;;;;;;75.50;45.60;;;;;;;;;;2026771;29;20032;-58
2024/01/06 01:48:08;;;;;;;86.85;47.42;;;;;;;;;;2026649;29;20040;-58
2024/01/06 01:49:09;;;;;;;88.53;50.75;;;;;;;;;;2035072;29;20064;-58
2024/01/06 01:50:09;;;;;;;70.13;42.08;;;;;;;;;;2035115;29;20036;-58
2024/01/06 01:51:10;;;;;;;67.65;40.50;;;;;;;;;;2026516;29;20053;-58
2024/01/06 01:52:11;;;;;;;77.93;44.95;;;;;;;;;;2018822;29;20041;-58
2024/01/06 01:53:11;;;;;;;78.55;45.40;;;;;;;;;;2018958;29;20393;-58
2024/01/06 01:54:12;;;;;;;70.32;42.83;;;;;;;;;;2026670;29;20040;-57
2024/01/06 01:55:13;;;;;;;75.80;43.55;;;;;;;;;;2034971;29;20044;-58
2024/01/06 01:56:14;;;;;;;82.82;47.10;;;;;;;;;;2026692;29;20041;-58
2024/01/06 01:57:15;;;;;;;74.20;44.45;;;;;;;;;;2018351;29;20506;-58
2024/01/06 01:58:15;;;;;;;89.65;49.55;;;;;;;;;;2025954;29;20092;-60
2024/01/06 01:59:17;;;;;;;75.78;44.55;;;;;;;;;;2035116;29;20032;-58
2024/01/06 02:00:18;;;;;;;89.85;49.22;;;;;;;;;;2035011;29;20040;-59
2024/01/06 02:01:19;;;;;;;83.75;46.78;;;;;;;;;;2026130;29;20045;-59
2024/01/06 02:02:19;;;;;;;83.20;48.50;;;;;;;;;;2026638;29;20028;-59
2024/01/06 02:03:20;;;;;;;91.25;49.60;;;;;;;;;;2026597;29;20052;-59
2024/01/06 02:04:21;;;;;;;91.63;48.95;;;;;;;;;;2018809;29;20069;-59
2024/01/06 02:05:21;;;;;;;85.30;48.00;;;;;;;;;;2026286;29;20021;-59
2024/01/06 02:06:22;;;;;;;74.32;46.03;;;;;;;;;;2035106;29;20478;-59
2024/01/06 02:07:23;;;;;;;51.67;31.67;;;;;;;;;;2035055;29;20353;-59
2024/01/06 02:08:24;;;;;;;62.83;40.05;;;;;;;;;;2034954;29;20043;-59
2024/01/06 02:09:28;;;;;;;96.10;50.65;;;;;;;;;;2034962;29;20028;-58
2024/01/06 02:10:29;;;;;;;107.53;54.80;;;;;;;;;;2034974;29;20040;-58
2024/01/06 02:11:30;;;;;;;106.72;51.17;;;;;;;;;;2034549;29;20075;-58
2024/01/06 02:12:31;;;;;;;142.27;60.90;;;;;;;;;;2035128;29;20075;-59
2024/01/06 02:13:35;;;;;;;96.45;49.95;;;;;;;;;;2034891;29;20074;-58
2024/01/06 02:14:35;;;;;;;82.00;46.35;;;;;;;;;;2034837;29;20044;-59
2024/01/06 02:15:37;;;;;;;86.82;47.97;;;;;;;;;;2034824;29;20068;-59
2024/01/06 02:16:37;;;;;;;88.25;48.63;;;;;;;;;;2034829;29;20039;-58
2024/01/06 02:17:39;;;;;;;86.28;47.40;;;;;;;;;;2034802;29;20380;-59
2024/01/06 02:18:40;;;;;;;86.00;45.45;;;;;;;;;;2035153;29;20039;-59
2024/01/06 02:19:41;;;;;;;86.53;45.28;;;;;;;;;;2034931;29;20032;-59
2024/01/06 02:20:42;;;;;;;91.13;46.80;;;;;;;;;;2034819;29;20346;-59
2024/01/06 02:21:43;;;;;;;84.28;45.50;;;;;;;;;;2035225;29;20063;-59
2024/01/06 02:22:44;;;;;;;85.43;45.53;;;;;;;;;;2034725;29;20047;-59
2024/01/06 02:23:45;;;;;;;89.13;46.22;;;;;;;;;;2034802;29;20043;-59
2024/01/06 02:24:45;;;;;;;79.40;43.60;;;;;;;;;;2034969;29;20388;-59
2024/01/06 02:25:46;;;;;;;79.18;43.22;;;;;;;;;;2034172;29;20491;-59
2024/01/06 02:26:47;;;;;;;86.82;45.38;;;;;;;;;;2034856;29;20040;-60
2024/01/06 02:27:47;;;;;;;97.15;50.35;;;;;;;;;;2034755;29;20047;-59
2024/01/06 02:28:49;;;;;;;81.00;46.35;;;;;;;;;;2034707;29;20032;-59
2024/01/06 02:29:49;;;;;;;109.68;53.60;;;;;;;;;;2034805;29;20043;-60
2024/01/06 02:30:50;;;;;;;96.82;48.88;;;;;;;;;;2034655;29;20044;-59
2024/01/06 02:31:51;;;;;;;82.00;43.72;;;;;;;;;;2034223;29;20097;-59
2024/01/06 02:32:52;;;;;;;7.68;5.10;;;;;;;;;;2034800;29;20047;-59
2024/01/06 02:33:53;;;;;;;21.10;14.00;;;;;;;;;;2034755;29;20036;-59
2024/01/06 02:34:53;;;;;;;33.78;22.73;;;;;;;;;;2034784;29;20398;-59
2024/01/06 02:35:54;;;;;;;24.25;15.25;;;;;;;;;;2034695;29;20068;-59
2024/01/06 02:36:55;;;;;;;11.27;6.38;;;;;;;;;;2034745;29;20068;-59
2024/01/06 02:37:55;;;;;;;20.80;11.27;;;;;;;;;;2034845;29;20392;-59
2024/01/06 02:38:56;;;;;;;19.13;11.52;;;;;;;;;;2034776;29;20071;-59
2024/01/06 02:39:57;;;;;;;21.38;13.13;;;;;;;;;;2034739;29;20040;-61
2024/01/06 02:40:58;;;;;;;19.95;12.55;;;;;;;;;;2034816;29;20056;-60
2024/01/06 02:41:58;;;;;;;23.85;14.25;;;;;;;;;;2034725;29;20035;-60
2024/01/06 02:42:59;;;;;;;23.50;14.35;;;;;;;;;;2026459;29;20048;-60
2024/01/06 02:44:02;;;;;;;23.13;14.98;;;;;;;;;;2026305;29;20047;-60
2024/01/06 02:45:03;;;;;;;22.50;13.90;;;;;;;;;;2034688;29;20043;-60
2024/01/06 02:46:04;;;;;;;19.45;12.07;;;;;;;;;;2034859;29;20495;-60
2024/01/06 02:47:05;;;;;;;21.58;11.55;;;;;;;;;;2034827;29;20370;-59
2024/01/06 02:48:05;;;;;;;20.60;10.63;;;;;;;;;;2034879;29;20469;-58
2024/01/06 02:49:07;;;;;;;18.85;11.93;;;;;;;;;;2034896;29;20040;-59
2024/01/06 02:50:08;;;;;;;19.88;10.55;;;;;;;;;;2034663;29;20032;-59
2024/01/06 02:51:08;;;;;;;15.52;10.27;;;;;;;;;;2034743;29;20040;-58
2024/01/06 02:52:09;;;;;;;18.63;11.18;;;;;;;;;;2026319;29;20059;-59
2024/01/06 02:53:12;;;;;;;17.75;10.65;;;;;;;;;;2026244;29;20045;-59
2024/01/06 02:54:13;;;;;;;22.20;12.00;;;;;;;;;;2034715;29;20036;-59
2024/01/06 02:55:14;;;;;;;20.17;10.63;;;;;;;;;;2034717;29;20120;-59
2024/01/06 02:56:14;;;;;;;19.52;10.50;;;;;;;;;;2034826;29;20622;-59
2024/01/06 02:57:15;;;;;;;18.83;11.18;;;;;;;;;;2034704;29;20498;-59
2024/01/06 02:58:16;;;;;;;23.35;12.45;;;;;;;;;;2034623;29;20475;-59
2024/01/06 02:59:16;;;;;;;21.90;12.88;;;;;;;;;;2034670;29;20036;-59
2024/01/06 03:00:17;;;;;;;21.20;13.27;;;;;;;;;;2034583;29;20059;-59
2024/01/06 03:01:18;;;;;;;22.23;12.43;;;;;;;;;;2034648;29;20052;-59
2024/01/06 03:02:19;;;;;;;25.85;14.60;;;;;;;;;;2034782;29;20047;-59
2024/01/06 03:03:19;;;;;;;24.02;15.00;;;;;;;;;;2034704;29;20384;-59
2024/01/06 03:04:20;;;;;;;28.90;16.42;;;;;;;;;;2034605;29;20040;-58
2024/01/06 03:05:21;;;;;;;27.27;15.70;;;;;;;;;;2034148;29;20044;-59
2024/01/06 03:06:22;;;;;;;32.50;16.33;;;;;;;;;;2034341;29;20051;-60
2024/01/06 03:07:22;;;;;;;27.63;14.95;;;;;;;;;;2034855;29;20059;-60
2024/01/06 03:08:23;;;;;;;21.70;12.70;;;;;;;;;;2034602;29;20036;-60
2024/01/06 03:09:24;;;;;;;19.15;11.43;;;;;;;;;;2034665;29;20049;-59
2024/01/06 03:10:25;;;;;;;20.10;12.20;;;;;;;;;;2034537;29;20032;-59
2024/01/06 03:11:25;;;;;;;18.58;10.63;;;;;;;;;;2034392;29;20603;-59
2024/01/06 03:12:26;;;;;;;19.42;11.43;;;;;;;;;;2034218;29;20503;-59
2024/01/06 03:13:27;;;;;;;19.42;11.13;;;;;;;;;;2034664;29;20495;-59
2024/01/06 03:14:27;;;;;;;19.95;11.32;;;;;;;;;;2034493;29;20584;-60
2024/01/06 03:15:28;;;;;;;22.27;10.57;;;;;;;;;;2034671;29;20478;-60
2024/01/06 03:16:29;;;;;;;14.50;9.27;;;;;;;;;;2034803;29;20043;-60
2024/01/06 03:17:29;;;;;;;13.40;9.20;;;;;;;;;;2034431;29;20032;-60
2024/01/06 03:18:30;;;;;;;14.07;9.20;;;;;;;;;;2034598;29;20035;-60
2024/01/06 03:19:31;;;;;;;17.60;9.77;;;;;;;;;;2034695;29;20028;-60
2024/01/06 03:20:32;;;;;;;15.85;9.13;;;;;;;;;;2034463;29;20067;-60
2024/01/06 03:21:32;;;;;;;17.05;9.40;;;;;;;;;;2034612;29;20043;-61
2024/01/06 03:22:33;;;;;;;15.52;8.93;;;;;;;;;;2034586;29;20417;-60
2024/01/06 03:23:34;;;;;;;16.08;8.07;;;;;;;;;;2034802;29;20469;-60
2024/01/06 03:24:34;;;;;;;18.95;9.45;;;;;;;;;;2034294;29;20029;-60
2024/01/06 03:25:35;;;;;;;17.23;8.77;;;;;;;;;;2034155;29;20059;-60
2024/01/06 03:26:36;;;;;;;15.30;8.07;;;;;;;;;;2034216;29;20032;-60
2024/01/06 03:27:37;;;;;;;15.88;7.88;;;;;;;;;;2034074;29;20033;-59
2024/01/06 03:28:37;;;;;;;13.70;7.50;;;;;;;;;;2034188;29;20047;-61
2024/01/06 03:29:38;;;;;;;17.60;8.50;;;;;;;;;;2034096;29;20044;-60
2024/01/06 03:30:39;;;;;;;17.02;8.77;;;;;;;;;;2034313;29;20064;-60
2024/01/06 03:31:45;;;;;;;15.90;7.70;;;;;;;;;;2025775;29;20470;-60
2024/01/06 03:32:46;;;;;;;14.00;7.70;;;;;;;;;;2025923;29;20060;-60
2024/01/06 03:33:47;;;;;;;13.82;8.27;;;;;;;;;;2032866;29;20103;-60
2024/01/06 03:34:48;;;;;;;16.02;8.50;;;;;;;;;;2025637;29;20040;-60
2024/01/06 03:35:48;;;;;;;15.23;8.10;;;;;;;;;;2025910;29;20059;-59
2024/01/06 03:36:49;;;;;;;17.60;8.35;;;;;;;;;;2025580;29;20529;-60
2024/01/06 03:37:50;;;;;;;18.30;8.63;;;;;;;;;;2018294;29;20409;-60
2024/01/06 03:38:51;;;;;;;14.30;6.32;;;;;;;;;;2026019;29;20079;-59
2024/01/06 03:39:51;;;;;;;11.52;6.88;;;;;;;;;;2034270;29;20051;-60
2024/01/06 03:40:52;;;;;;;13.85;7.88;;;;;;;;;;2034361;29;20040;-59
2024/01/06 03:41:53;;;;;;;14.40;7.43;;;;;;;;;;2034489;29;20138;-60
2024/01/06 03:42:54;;;;;;;17.42;7.50;;;;;;;;;;2034536;29;20067;-59
2024/01/06 03:43:54;;;;;;;14.05;8.55;;;;;;;;;;2034567;29;20040;-60
2024/01/06 03:44:55;;;;;;;14.00;7.30;;;;;;;;;;2034427;29;20051;-60
2024/01/06 03:45:57;;;;;;;16.02;8.15;;;;;;;;;;2034532;29;20048;-60
2024/01/06 03:46:58;;;;;;;14.52;7.32;;;;;;;;;;2034243;29;20040;-60
2024/01/06 03:47:59;;;;;;;13.02;7.18;;;;;;;;;;2034432;29;20064;-60
2024/01/06 03:48:59;;;;;;;13.10;6.65;;;;;;;;;;2034412;29;20040;-59
2024/01/06 03:50:00;;;;;;;14.02;6.85;;;;;;;;;;2034226;29;20039;-60
2024/01/06 03:51:01;;;;;;;13.48;6.93;;;;;;;;;;2034346;29;20060;-60
2024/01/06 03:52:02;;;;;;;14.55;6.35;;;;;;;;;;2034611;29;20055;-61
2024/01/06 03:53:03;;;;;;;15.75;5.60;;;;;;;;;;2034381;29;20075;-61
2024/01/06 03:54:04;;;;;;;9.88;4.50;;;;;;;;;;2034254;29;20059;-61
2024/01/06 03:55:05;;;;;;;14.40;5.15;;;;;;;;;;2033626;29;20433;-60
2024/01/06 03:56:06;;;;;;;13.90;4.90;;;;;;;;;;2034262;29;20043;-62
2024/01/06 03:57:06;;;;;;;10.20;4.72;;;;;;;;;;2025791;29;20393;-61
2024/01/06 03:58:07;;;;;;;7.90;4.57;;;;;;;;;;2025356;29;20033;-60
2024/01/06 03:59:08;;;;;;;10.85;4.68;;;;;;;;;;2026013;29;20124;-60
2024/01/06 04:00:09;;;;;;;9.50;4.05;;;;;;;;;;2025893;29;20040;-61
2024/01/06 04:01:10;;;;;;;12.75;3.65;;;;;;;;;;2034253;29;20036;-60
2024/01/06 04:02:10;;;;;;;9.88;3.83;;;;;;;;;;2034070;29;20491;-60
2024/01/06 04:03:11;;;;;;;11.25;3.78;;;;;;;;;;2034181;29;20036;-60
2024/01/06 04:04:12;;;;;;;13.15;3.78;;;;;;;;;;2034161;29;20071;-60
2024/01/06 04:05:13;;;;;;;10.88;3.63;;;;;;;;;;2033201;29;20404;-61
2024/01/06 04:06:14;;;;;;;12.57;3.70;;;;;;;;;;2034134;29;20067;-60
2024/01/06 04:07:14;;;;;;;10.23;2.85;;;;;;;;;;2033636;29;20056;-60
2024/01/06 04:08:15;;;;;;;10.82;3.17;;;;;;;;;;2033805;29;20055;-61
2024/01/06 04:09:16;;;;;;;8.15;2.28;;;;;;;;;;2034199;29;20040;-61
2024/01/06 04:10:16;;;;;;;8.43;2.25;;;;;;;;;;2034127;29;20384;-61
2024/01/06 04:11:17;;;;;;;4.45;2.28;;;;;;;;;;2034033;29;20044;-61
2024/01/06 04:12:18;;;;;;;13.57;2.83;;;;;;;;;;2033996;29;20047;-61
2024/01/06 04:13:19;;;;;;;5.47;2.17;;;;;;;;;;2034037;29;20064;-61
2024/01/06 04:14:19;;;;;;;4.97;2.25;;;;;;;;;;2034158;29;20111;-61
2024/01/06 04:15:20;;;;;;;7.30;2.20;;;;;;;;;;2034083;29;20039;-61
2024/01/06 04:16:21;;;;;;;6.50;2.25;;;;;;;;;;2025934;29;20040;-60
2024/01/06 04:17:21;;;;;;;8.23;2.60;;;;;;;;;;2025800;29;20035;-61
2024/01/06 04:18:22;;;;;;;6.97;2.00;;;;;;;;;;2034079;29;20036;-61
2024/01/06 04:19:23;;;;;;;8.98;2.88;;;;;;;;;;2034040;29;20036;-61
2024/01/06 04:20:24;;;;;;;6.60;2.33;;;;;;;;;;2034054;29;20068;-61
2024/01/06 04:21:24;;;;;;;7.28;2.33;;;;;;;;;;2034025;29;20389;-61
2024/01/06 04:22:25;;;;;;;5.00;2.47;;;;;;;;;;2034332;29;20032;-61
2024/01/06 04:23:26;;;;;;;8.57;2.60;;;;;;;;;;2034034;29;20043;-61
2024/01/06 04:24:26;;;;;;;9.25;3.15;;;;;;;;;;2034044;29;20067;-61
2024/01/06 04:25:27;;;;;;;6.60;2.40;;;;;;;;;;2034389;29;20024;-62
2024/01/06 04:26:28;;;;;;;7.97;2.03;;;;;;;;;;2034062;29;20024;-61
2024/01/06 04:27:29;;;;;;;8.80;3.00;;;;;;;;;;2033989;29;20392;-61
2024/01/06 04:28:29;;;;;;;7.93;2.70;;;;;;;;;;2034038;29;20119;-61
2024/01/06 04:29:30;;;;;;;7.75;2.30;;;;;;;;;;2033946;29;20036;-60
2024/01/06 04:30:31;;;;;;;8.25;2.60;;;;;;;;;;2033952;29;20039;-61
2024/01/06 04:31:31;;;;;;;9.77;2.90;;;;;;;;;;2034228;29;20024;-61
2024/01/06 04:32:32;;;;;;;8.05;2.70;;;;;;;;;;2034021;29;20125;-61
2024/01/06 04:33:33;;;;;;;9.07;3.00;;;;;;;;;;2034113;29;20416;-61
2024/01/06 04:34:34;;;;;;;8.02;3.03;;;;;;;;;;2034071;29;20091;-61
2024/01/06 04:35:34;;;;;;;13.32;3.40;;;;;;;;;;2033834;29;20062;-60
2024/01/06 04:36:35;;;;;;;10.05;3.65;;;;;;;;;;2033711;29;20392;-61
2024/01/06 04:37:36;;;;;;;7.22;3.38;;;;;;;;;;2034115;29;20075;-61
2024/01/06 04:38:36;;;;;;;8.65;3.38;;;;;;;;;;2034062;29;20066;-61
2024/01/06 04:39:38;;;;;;;7.72;3.28;;;;;;;;;;2033842;29;20044;-61
2024/01/06 04:40:38;;;;;;;8.50;3.50;;;;;;;;;;2034075;29;20040;-60
2024/01/06 04:41:40;;;;;;;10.13;3.88;;;;;;;;;;2034067;29;20036;-60
2024/01/06 04:42:40;;;;;;;8.85;4.05;;;;;;;;;;2033846;29;20472;-61
2024/01/06 04:43:41;;;;;;;7.47;4.03;;;;;;;;;;2034025;29;20032;-60
2024/01/06 04:44:42;;;;;;;9.20;3.65;;;;;;;;;;2033647;29;20063;-62
2024/01/06 04:45:42;;;;;;;7.30;3.35;;;;;;;;;;2033759;29;20040;-61
2024/01/06 04:46:43;;;;;;;11.02;3.97;;;;;;;;;;2033860;29;20385;-61
2024/01/06 04:47:44;;;;;;;7.68;3.30;;;;;;;;;;2033943;29;20044;-61
2024/01/06 04:48:45;;;;;;;7.18;3.47;;;;;;;;;;2033830;29;20396;-60
2024/01/06 04:49:45;;;;;;;7.35;2.92;;;;;;;;;;2034051;29;20075;-61
2024/01/06 04:50:46;;;;;;;12.10;4.00;;;;;;;;;;2034166;29;20047;-61
2024/01/06 04:51:47;;;;;;;9.77;4.00;;;;;;;;;;2033890;29;20028;-61
2024/01/06 04:52:48;;;;;;;8.77;3.55;;;;;;;;;;2033861;29;20408;-61
2024/01/06 04:53:49;;;;;;;10.55;4.03;;;;;;;;;;2033861;29;20044;-60
2024/01/06 04:54:49;;;;;;;8.05;4.13;;;;;;;;;;2025562;29;20136;-60
2024/01/06 04:55:50;;;;;;;6.93;3.30;;;;;;;;;;2025508;29;20085;-61
2024/01/06 04:56:51;;;;;;;9.32;3.17;;;;;;;;;;2033908;29;20067;-60
2024/01/06 04:57:52;;;;;;;6.72;2.65;;;;;;;;;;2025467;29;20059;-59
2024/01/06 04:58:52;;;;;;;6.55;2.53;;;;;;;;;;2025593;29;20416;-60
2024/01/06 04:59:53;;;;;;;7.95;2.90;;;;;;;;;;2034065;29;20492;-60
2024/01/06 05:00:54;;;;;;;9.40;3.25;;;;;;;;;;2033914;29;20036;-60
2024/01/06 05:01:54;;;;;;;6.68;2.78;;;;;;;;;;2033867;29;20044;-60
2024/01/06 05:02:55;;;;;;;8.38;3.00;;;;;;;;;;2025445;29;20051;-60
2024/01/06 05:03:56;;;;;;;6.32;3.28;;;;;;;;;;2025463;29;20032;-61
2024/01/06 05:04:57;;;;;;;8.50;3.03;;;;;;;;;;2033862;29;20396;-60
2024/01/06 05:05:57;;;;;;;7.93;2.83;;;;;;;;;;2034018;29;20036;-61
2024/01/06 05:06:58;;;;;;;5.35;2.78;;;;;;;;;;2033774;29;20520;-60
2024/01/06 05:08:00;;;;;;;7.53;3.00;;;;;;;;;;2033208;29;20052;-61
2024/01/06 05:09:00;;;;;;;6.43;2.20;;;;;;;;;;2034048;29;20044;-60
2024/01/06 05:10:02;;;;;;;6.53;2.47;;;;;;;;;;2025401;29;20037;-61
2024/01/06 05:11:02;;;;;;;4.95;2.13;;;;;;;;;;2025572;29;20032;-60
2024/01/06 05:12:03;;;;;;;8.27;2.40;;;;;;;;;;2033910;29;20079;-60
2024/01/06 05:13:04;;;;;;;7.97;2.90;;;;;;;;;;2033891;29;20071;-61
2024/01/06 05:14:05;;;;;;;7.00;2.60;;;;;;;;;;2033999;29;20063;-60
2024/01/06 05:15:05;;;;;;;8.70;2.90;;;;;;;;;;2033782;29;20389;-60
2024/01/06 05:16:07;;;;;;;9.38;2.67;;;;;;;;;;2033149;29;20044;-60
2024/01/06 05:17:09;;;;;;;7.50;2.90;;;;;;;;;;2033139;29;20055;-60
2024/01/06 05:18:09;;;;;;;9.60;2.58;;;;;;;;;;2033833;29;20041;-60
2024/01/06 05:19:10;;;;;;;7.65;2.47;;;;;;;;;;2033765;29;20445;-60
2024/01/06 05:20:11;;;;;;;6.28;2.47;;;;;;;;;;2033861;29;20468;-60
2024/01/06 05:21:11;;;;;;;7.88;2.88;;;;;;;;;;2033983;29;20051;-60
2024/01/06 05:22:12;;;;;;;7.68;2.72;;;;;;;;;;2033715;29;20036;-60
2024/01/06 05:23:13;;;;;;;7.57;2.78;;;;;;;;;;2034003;29;20043;-63
2024/01/06 05:24:13;;;;;;;8.05;3.17;;;;;;;;;;2033475;29;20079;-60
2024/01/06 05:25:14;;;;;;;9.57;3.13;;;;;;;;;;2033822;29;20040;-60
2024/01/06 05:26:15;;;;;;;6.60;3.22;;;;;;;;;;2033859;29;20047;-60
2024/01/06 05:27:16;;;;;;;7.72;3.25;;;;;;;;;;2033824;29;20384;-60
2024/01/06 05:28:16;;;;;;;10.50;3.45;;;;;;;;;;2033842;29;20036;-60
2024/01/06 05:29:17;;;;;;;8.45;3.13;;;;;;;;;;2033915;29;20075;-60
2024/01/06 05:30:18;;;;;;;9.77;3.28;;;;;;;;;;2033677;29;20044;-60
2024/01/06 05:31:18;;;;;;;8.20;3.00;;;;;;;;;;2033705;29;20028;-60
2024/01/06 05:32:20;;;;;;;7.45;2.80;;;;;;;;;;2033860;29;20043;-60
2024/01/06 05:33:20;;;;;;;14.73;3.78;;;;;;;;;;2033636;29;20047;-59
2024/01/06 05:34:21;;;;;;;8.32;2.50;;;;;;;;;;2033792;29;20039;-60
2024/01/06 05:35:22;;;;;;;5.88;2.38;;;;;;;;;;2025112;29;20393;-60
2024/01/06 05:36:23;;;;;;;10.43;2.92;;;;;;;;;;2025243;29;20036;-59
2024/01/06 05:37:24;;;;;;;10.30;2.78;;;;;;;;;;2034061;29;20032;-60
2024/01/06 05:38:25;;;;;;;10.45;3.10;;;;;;;;;;2033696;29;20067;-59
2024/01/06 05:39:25;;;;;;;8.65;2.80;;;;;;;;;;2025340;29;20063;-60
2024/01/06 05:40:26;;;;;;;9.25;2.55;;;;;;;;;;2025371;29;20420;-60
2024/01/06 05:41:27;;;;;;;10.52;3.10;;;;;;;;;;2032878;29;20051;-60
2024/01/06 05:42:27;;;;;;;7.20;2.78;;;;;;;;;;2033501;29;20477;-60
2024/01/06 05:43:28;;;;;;;9.20;2.70;;;;;;;;;;2033592;29;20036;-60
2024/01/06 05:44:29;;;;;;;6.40;2.58;;;;;;;;;;2033614;29;20035;-60
2024/01/06 05:45:30;;;;;;;5.28;2.55;;;;;;;;;;2033731;29;20032;-60
2024/01/06 05:46:31;;;;;;;8.13;2.60;;;;;;;;;;2033750;29;20075;-59
2024/01/06 05:47:31;;;;;;;7.35;2.47;;;;;;;;;;2033760;29;20032;-59
2024/01/06 05:48:32;;;;;;;6.95;2.45;;;;;;;;;;2033730;29;20043;-59
2024/01/06 05:49:33;;;;;;;8.90;2.65;;;;;;;;;;2033614;29;20067;-59
2024/01/06 05:50:33;;;;;;;10.43;2.83;;;;;;;;;;2033791;29;20016;-60
2024/01/06 05:51:34;;;;;;;8.68;2.90;;;;;;;;;;2033710;29;20028;-60
2024/01/06 05:52:35;;;;;;;8.45;2.83;;;;;;;;;;2033556;29;20052;-60
2024/01/06 05:53:36;;;;;;;8.20;2.90;;;;;;;;;;2033760;29;20476;-60
2024/01/06 05:54:36;;;;;;;8.02;2.40;;;;;;;;;;2033820;29;20106;-60
2024/01/06 05:55:37;;;;;;;10.45;2.85;;;;;;;;;;2025206;29;20500;-60
2024/01/06 05:56:38;;;;;;;11.10;3.05;;;;;;;;;;2025224;29;20048;-59
2024/01/06 05:57:39;;;;;;;10.88;2.90;;;;;;;;;;2034364;29;20032;-60